createdAt,value
2023-11-01T00:00:16.201Z,96987.66
2023-11-01T00:05:18.204Z,96992.13
2023-11-01T00:10:20.157Z,96988.53
2023-11-01T00:15:22.141Z,97000.34
2023-11-01T00:20:23.998Z,97001.59
2023-11-01T00:25:25.911Z,96992.22
2023-11-01T00:30:27.874Z,96997.63
2023-11-01T00:35:29.870Z,97000.59
2023-11-01T00:40:32.369Z,97003.56
2023-11-01T00:45:34.244Z,96996.19
2023-11-01T00:50:36.105Z,97003.53
2023-11-01T00:55:37.957Z,97001.94
2023-11-01T01:00:39.793Z,97004.56
2023-11-01T01:05:43.067Z,97008.56
2023-11-01T01:10:44.989Z,97008.63
2023-11-01T01:15:46.954Z,97007.25
2023-11-01T01:20:49.444Z,96997.44
2023-11-01T01:25:51.356Z,96999.06
2023-11-01T01:30:53.187Z,96999.47
2023-11-01T01:35:55.102Z,96996.69
2023-11-01T01:40:56.960Z,96994.31
2023-11-01T01:46:10.738Z,96997.06
2023-11-01T01:51:13.664Z,96990.91
2023-11-01T01:56:18.137Z,96994.09
2023-11-01T02:01:29.200Z,96997.69
2023-11-01T02:06:36.727Z,96989.47
2023-11-01T02:11:38.585Z,96979.06
2023-11-01T02:16:40.657Z,96980.22
2023-11-01T02:21:42.616Z,96988.16
2023-11-01T02:26:44.732Z,96987.75
2023-11-01T02:31:46.544Z,96989.78
2023-11-01T02:36:49.277Z,96992.59
2023-11-01T02:41:51.387Z,96987.03
2023-11-01T02:46:53.304Z,96988.63
2023-11-01T02:51:55.126Z,96981.03
2023-11-01T02:57:00.801Z,96987.41
2023-11-01T03:02:02.670Z,96981.22
2023-11-01T03:07:04.638Z,96978.00
2023-11-01T03:12:06.812Z,96975.94
2023-11-01T03:17:10.021Z,96981.06
2023-11-01T03:22:11.909Z,96976.00
2023-11-01T03:27:13.834Z,96981.41
2023-11-01T03:32:15.908Z,96987.00
2023-11-01T03:37:17.788Z,96988.97
2023-11-01T03:42:22.253Z,96989.06
2023-11-01T03:47:24.386Z,96986.50
2023-11-01T03:52:27.580Z,96997.25
2023-11-01T03:57:29.437Z,96997.31
2023-11-01T04:02:32.544Z,96994.72
2023-11-01T04:07:34.510Z,96996.34
2023-11-01T04:12:36.569Z,96993.22
2023-11-01T04:17:39.224Z,96982.81
2023-11-01T04:22:41.092Z,96985.81
2023-11-01T04:27:43.260Z,96982.03
2023-11-01T04:32:45.331Z,96976.03
2023-11-01T04:37:47.220Z,96980.66
2023-11-01T04:42:49.226Z,96978.81
2023-11-01T04:47:51.228Z,96980.16
2023-11-01T04:52:53.661Z,96978.53
2023-11-01T04:57:55.497Z,96960.50
2023-11-01T05:02:57.483Z,96975.66
2023-11-01T05:07:59.388Z,96975.78
2023-11-01T05:13:01.221Z,96961.78
2023-11-01T05:18:03.554Z,96972.13
2023-11-01T05:23:05.529Z,96976.03
2023-11-01T05:28:07.533Z,96976.78
2023-11-01T05:33:09.427Z,96978.34
2023-11-01T05:38:11.358Z,96974.75
2023-11-01T05:43:13.188Z,96974.66
2023-11-01T05:48:15.056Z,96971.03
2023-11-01T05:53:16.952Z,96983.69
2023-11-01T05:58:18.829Z,96978.56
2023-11-01T06:03:21.347Z,96975.75
2023-11-01T06:08:23.873Z,96979.75
2023-11-01T06:13:25.744Z,96984.63
2023-11-01T06:18:27.674Z,96988.31
2023-11-01T06:23:29.633Z,96991.19
2023-11-01T06:28:31.567Z,96994.84
2023-11-01T06:33:33.548Z,96997.69
2023-11-01T06:38:35.508Z,96996.91
2023-11-01T06:43:37.499Z,96991.28
2023-11-01T06:48:39.424Z,96998.84
2023-11-01T06:53:41.492Z,97002.38
2023-11-01T06:58:45.080Z,96997.91
2023-11-01T07:03:47.062Z,96996.31
2023-11-01T07:08:49.166Z,96992.13
2023-11-01T07:13:51.144Z,96990.31
2023-11-01T07:18:53.046Z,96990.72
2023-11-01T07:23:54.962Z,96985.13
2023-11-01T07:28:56.875Z,96991.63
2023-11-01T07:33:58.725Z,96992.88
2023-11-01T07:39:00.607Z,96990.84
2023-11-01T07:44:02.531Z,96992.72
2023-11-01T07:49:04.398Z,96972.38
2023-11-01T07:54:06.408Z,96981.22
2023-11-01T07:59:09.397Z,96984.84
2023-11-01T08:04:11.406Z,96976.84
2023-11-01T08:09:14.311Z,96978.25
2023-11-01T08:14:16.160Z,96981.03
2023-11-01T08:19:18.034Z,96965.41
2023-11-01T08:24:19.990Z,96964.22
2023-11-01T08:29:22.723Z,96964.00
2023-11-01T08:34:24.627Z,96954.56
2023-11-01T08:39:26.553Z,96963.78
2023-11-01T08:44:28.425Z,96964.34
2023-11-01T08:49:30.273Z,96956.03
2023-11-01T08:54:33.261Z,96968.03
2023-11-01T08:59:35.173Z,96963.16
2023-11-01T09:04:37.094Z,96963.75
2023-11-01T09:09:39.420Z,96965.44
2023-11-01T09:14:41.719Z,96959.19
2023-11-01T09:19:43.948Z,96960.63
2023-11-01T09:24:45.775Z,96955.50
2023-11-01T09:29:47.711Z,96948.56
2023-11-01T09:34:52.103Z,96945.16
2023-11-01T09:39:55.150Z,96941.00
2023-11-01T09:44:58.609Z,96937.09
2023-11-01T09:50:01.245Z,96935.47
2023-11-01T09:55:05.847Z,96926.69
2023-11-01T10:00:08.839Z,96941.09
2023-11-01T10:05:10.740Z,96932.84
2023-11-01T10:10:17.907Z,96927.69
2023-11-01T10:15:21.238Z,96923.25
2023-11-01T10:20:28.978Z,96915.41
2023-11-01T10:25:30.954Z,96909.22
2023-11-01T10:30:32.833Z,96905.22
2023-11-01T10:35:35.403Z,96909.03
2023-11-01T10:40:38.826Z,96908.94
2023-11-01T10:45:40.711Z,96905.50
2023-11-01T10:50:44.997Z,96896.63
2023-11-01T10:55:46.925Z,96881.63
2023-11-01T11:00:56.704Z,96874.63
2023-11-01T11:05:59.689Z,96863.00
2023-11-01T11:11:18.759Z,96857.16
2023-11-01T11:16:22.374Z,96858.22
2023-11-01T11:21:46.128Z,96851.50
2023-11-01T11:26:48.092Z,96848.63
2023-11-01T11:32:00.278Z,96856.78
2023-11-01T11:37:07.681Z,96848.56
2023-11-01T11:42:49.382Z,96854.34
2023-11-01T11:47:51.451Z,96853.94
2023-11-01T11:52:53.455Z,96849.56
2023-11-01T11:57:55.350Z,96838.16
2023-11-01T12:02:58.232Z,96844.28
2023-11-01T12:08:02.412Z,96854.13
2023-11-01T12:13:04.287Z,96843.72
2023-11-01T12:18:13.264Z,96836.78
2023-11-01T12:23:15.180Z,96817.09
2023-11-01T12:28:21.781Z,96816.88
2023-11-01T12:33:25.256Z,96798.22
2023-11-01T12:38:27.177Z,96793.63
2023-11-01T12:43:29.251Z,96789.41
2023-11-01T12:48:31.237Z,96791.84
2023-11-01T12:53:33.246Z,96793.31
2023-11-01T12:58:37.696Z,96793.88
2023-11-01T13:03:43.422Z,96788.22
2023-11-01T13:08:45.467Z,96792.50
2023-11-01T13:13:47.327Z,96788.34
2023-11-01T13:18:49.270Z,96774.31
2023-11-01T13:23:51.242Z,96778.88
2023-11-01T13:28:53.127Z,96779.66
2023-11-01T13:33:55.404Z,96770.75
2023-11-01T13:38:57.293Z,96770.41
2023-11-01T13:43:59.275Z,96758.56
2023-11-01T13:49:01.126Z,96747.41
2023-11-01T13:54:03.032Z,96757.31
2023-11-01T13:59:05.037Z,96754.03
2023-11-01T14:04:07.495Z,96748.56
2023-11-01T14:09:12.639Z,96750.16
2023-11-01T14:14:14.550Z,96740.69
2023-11-01T14:19:16.464Z,96733.63
2023-11-01T14:24:19.921Z,96727.25
2023-11-01T14:29:22.200Z,96724.88
2023-11-01T14:34:28.226Z,96728.84
2023-11-01T14:39:30.100Z,96717.25
2023-11-01T14:44:32.032Z,96714.50
2023-11-01T14:49:34.125Z,96702.72
2023-11-01T14:54:36.067Z,96696.16
2023-11-01T14:59:37.977Z,96685.47
2023-11-01T15:04:39.872Z,96685.06
2023-11-01T15:09:41.732Z,96680.97
2023-11-01T15:14:43.871Z,96673.88
2023-11-01T15:19:46.898Z,96673.41
2023-11-01T15:24:53.151Z,96666.22
2023-11-01T15:29:55.034Z,96669.50
2023-11-01T15:34:57.168Z,96661.63
2023-11-01T15:40:01.952Z,96652.63
2023-11-01T15:45:06.158Z,96654.47
2023-11-01T15:50:08.253Z,96654.50
2023-11-01T15:55:10.263Z,96639.69
2023-11-01T16:00:13.124Z,96643.59
2023-11-01T16:05:15.127Z,96639.47
2023-11-01T16:10:17.019Z,96640.88
2023-11-01T16:15:19.162Z,96636.84
2023-11-01T16:20:21.088Z,96639.28
2023-11-01T16:25:24.360Z,96632.88
2023-11-01T16:30:26.387Z,96637.06
2023-11-01T16:35:30.484Z,96644.47
2023-11-01T16:40:32.315Z,96636.91
2023-11-01T16:45:35.403Z,96636.03
2023-11-01T16:50:37.360Z,96635.56
2023-11-01T16:55:39.231Z,96635.94
2023-11-01T17:00:41.183Z,96629.97
2023-11-01T17:05:43.160Z,96624.94
2023-11-01T17:10:45.068Z,96618.94
2023-11-01T17:15:46.899Z,96631.50
2023-11-01T17:20:48.744Z,96624.31
2023-11-01T17:25:50.728Z,96620.69
2023-11-01T17:30:54.043Z,96615.66
2023-11-01T17:35:56.504Z,96617.81
2023-11-01T17:40:59.591Z,96612.00
2023-11-01T17:46:01.933Z,96611.44
2023-11-01T17:51:04.068Z,96614.00
2023-11-01T17:56:07.402Z,96603.19
2023-11-01T18:01:09.263Z,96597.53
2023-11-01T18:06:19.693Z,96593.94
2023-11-01T18:11:22.861Z,96588.75
2023-11-01T18:16:30.458Z,96587.34
2023-11-01T18:21:35.015Z,96601.13
2023-11-01T18:26:37.220Z,96589.97
2023-11-01T18:31:49.725Z,96588.53
2023-11-01T18:36:54.084Z,96589.50
2023-11-01T18:41:56.768Z,96574.69
2023-11-01T18:46:59.692Z,96574.91
2023-11-01T18:52:02.005Z,96587.91
2023-11-01T18:57:10.156Z,96580.38
2023-11-01T19:02:33.941Z,96587.00
2023-11-01T19:07:41.215Z,96587.00
2023-11-01T19:12:43.608Z,96582.00
2023-11-01T19:17:45.567Z,96577.84
2023-11-01T19:22:47.893Z,96573.69
2023-11-01T19:27:49.826Z,96575.69
2023-11-01T19:32:51.723Z,96575.28
2023-11-01T19:37:54.024Z,96570.34
2023-11-01T19:42:56.282Z,96571.34
2023-11-01T19:47:58.364Z,96573.44
2023-11-01T19:53:00.639Z,96570.88
2023-11-01T19:58:02.878Z,96571.16
2023-11-01T20:03:06.516Z,96562.56
2023-11-01T20:08:08.530Z,96559.75
2023-11-01T20:13:10.447Z,96555.25
2023-11-01T20:18:12.339Z,96554.44
2023-11-01T20:23:15.649Z,96547.03
2023-11-01T20:28:19.518Z,96545.78
2023-11-01T20:33:21.474Z,96550.91
2023-11-01T20:38:23.398Z,96543.03
2023-11-01T20:43:25.231Z,96523.78
2023-11-01T20:48:27.094Z,96524.94
2023-11-01T20:53:29.580Z,96506.84
2023-11-01T20:58:31.995Z,96506.72
2023-11-01T21:03:33.941Z,96504.72
2023-11-01T21:08:35.972Z,96500.56
2023-11-01T21:13:37.938Z,96503.75
2023-11-01T21:18:40.249Z,96490.59
2023-11-01T21:23:42.863Z,96505.81
2023-11-01T21:28:44.800Z,96498.22
2023-11-01T21:33:46.869Z,96497.03
2023-11-01T21:38:56.842Z,96499.03
2023-11-01T21:44:02.226Z,96488.25
2023-11-01T21:49:17.689Z,96483.88
2023-11-01T21:54:27.364Z,96485.88
2023-11-01T21:59:29.533Z,96481.50
2023-11-01T22:04:36.453Z,96480.69
2023-11-01T22:09:39.925Z,96472.13
2023-11-01T22:14:42.114Z,96464.13
2023-11-01T22:19:44.642Z,96449.56
2023-11-01T22:24:46.466Z,96440.38
2023-11-01T22:29:50.453Z,96441.97
2023-11-01T22:34:54.004Z,96449.75
2023-11-01T22:39:57.358Z,96441.16
2023-11-01T22:45:02.669Z,96433.91
2023-11-01T22:50:05.789Z,96432.47
2023-11-01T22:55:08.117Z,96419.41
2023-11-01T23:00:30.690Z,96427.75
2023-11-01T23:05:32.831Z,96416.00
2023-11-01T23:10:36.287Z,96407.00
2023-11-01T23:15:38.376Z,96402.91
2023-11-01T23:20:41.610Z,96394.53
2023-11-01T23:25:43.475Z,96368.22
2023-11-01T23:31:11.355Z,96365.22
2023-11-01T23:36:19.933Z,96360.59
2023-11-01T23:41:42.462Z,96353.44
2023-11-01T23:46:44.987Z,96346.44
2023-11-01T23:52:00.855Z,96337.84
2023-11-01T23:57:03.446Z,96332.78
